sensor_id;sensor_type;location;lat;lon;timestamp;temperature;humidity
57660;DHT22;43485;45.680;15.702;2023-09-18T00:00:07;19.20;66.20
57660;DHT22;43485;45.680;15.702;2023-09-18T00:02:38;19.10;66.20
57660;DHT22;43485;45.680;15.702;2023-09-18T00:05:05;19.10;66.00
57660;DHT22;43485;45.680;15.702;2023-09-18T00:07:31;18.90;65.90
57660;DHT22;43485;45.680;15.702;2023-09-18T00:09:57;18.90;66.60
57660;DHT22;43485;45.680;15.702;2023-09-18T00:12:23;18.90;66.60
57660;DHT22;43485;45.680;15.702;2023-09-18T00:14:50;18.90;66.60
57660;DHT22;43485;45.680;15.702;2023-09-18T00:17:16;18.90;66.70
57660;DHT22;43485;45.680;15.702;2023-09-18T00:19:43;19.00;66.70
57660;DHT22;43485;45.680;15.702;2023-09-18T00:22:09;19.00;66.50
57660;DHT22;43485;45.680;15.702;2023-09-18T00:24:35;19.00;66.40
57660;DHT22;43485;45.680;15.702;2023-09-18T00:27:01;19.00;66.10
57660;DHT22;43485;45.680;15.702;2023-09-18T00:29:27;19.00;66.10
57660;DHT22;43485;45.680;15.702;2023-09-18T00:31:53;18.90;66.50
57660;DHT22;43485;45.680;15.702;2023-09-18T00:34:19;18.90;66.70
57660;DHT22;43485;45.680;15.702;2023-09-18T00:36:45;18.90;67.00
57660;DHT22;43485;45.680;15.702;2023-09-18T00:39:11;18.90;66.90
57660;DHT22;43485;45.680;15.702;2023-09-18T00:41:37;18.90;67.30
57660;DHT22;43485;45.680;15.702;2023-09-18T00:44:03;18.90;67.40
57660;DHT22;43485;45.680;15.702;2023-09-18T00:46:31;18.90;67.30
57660;DHT22;43485;45.680;15.702;2023-09-18T00:48:58;18.80;67.50
57660;DHT22;43485;45.680;15.702;2023-09-18T00:51:25;18.80;67.90
57660;DHT22;43485;45.680;15.702;2023-09-18T00:53:51;18.80;67.90
57660;DHT22;43485;45.680;15.702;2023-09-18T00:56:18;18.80;68.20
57660;DHT22;43485;45.680;15.702;2023-09-18T00:58:46;18.80;67.60
57660;DHT22;43485;45.680;15.702;2023-09-18T01:01:12;18.80;68.20
57660;DHT22;43485;45.680;15.702;2023-09-18T01:03:41;18.70;68.30
57660;DHT22;43485;45.680;15.702;2023-09-18T01:06:07;18.80;68.50
57660;DHT22;43485;45.680;15.702;2023-09-18T01:08:33;18.80;68.60
57660;DHT22;43485;45.680;15.702;2023-09-18T01:11:01;18.70;68.60
57660;DHT22;43485;45.680;15.702;2023-09-18T01:16:44;18.70;68.00
57660;DHT22;43485;45.680;15.702;2023-09-18T01:19:16;18.70;67.60
57660;DHT22;43485;45.680;15.702;2023-09-18T01:21:45;18.60;67.40
57660;DHT22;43485;45.680;15.702;2023-09-18T01:24:11;18.60;68.10
57660;DHT22;43485;45.680;15.702;2023-09-18T01:26:37;18.60;68.00
57660;DHT22;43485;45.680;15.702;2023-09-18T01:29:03;18.60;68.00
57660;DHT22;43485;45.680;15.702;2023-09-18T01:31:29;18.60;68.00
57660;DHT22;43485;45.680;15.702;2023-09-18T01:33:55;18.50;68.30
57660;DHT22;43485;45.680;15.702;2023-09-18T01:36:22;18.40;67.90
57660;DHT22;43485;45.680;15.702;2023-09-18T01:38:50;18.40;67.90
57660;DHT22;43485;45.680;15.702;2023-09-18T01:41:16;18.40;67.90
57660;DHT22;43485;45.680;15.702;2023-09-18T01:43:42;18.40;68.10
57660;DHT22;43485;45.680;15.702;2023-09-18T01:46:09;18.30;68.20
57660;DHT22;43485;45.680;15.702;2023-09-18T01:48:35;18.20;67.80
57660;DHT22;43485;45.680;15.702;2023-09-18T01:51:01;18.20;68.40
57660;DHT22;43485;45.680;15.702;2023-09-18T01:53:27;18.20;68.60
57660;DHT22;43485;45.680;15.702;2023-09-18T01:55:54;18.20;68.40
57660;DHT22;43485;45.680;15.702;2023-09-18T01:58:20;18.20;68.80
57660;DHT22;43485;45.680;15.702;2023-09-18T02:00:46;18.20;69.00
57660;DHT22;43485;45.680;15.702;2023-09-18T02:03:12;18.20;69.00
57660;DHT22;43485;45.680;15.702;2023-09-18T02:05:38;18.20;69.30
57660;DHT22;43485;45.680;15.702;2023-09-18T02:08:06;18.10;69.30
57660;DHT22;43485;45.680;15.702;2023-09-18T02:10:32;18.20;69.50
57660;DHT22;43485;45.680;15.702;2023-09-18T02:12:58;18.20;69.70
57660;DHT22;43485;45.680;15.702;2023-09-18T02:15:24;18.20;69.70
57660;DHT22;43485;45.680;15.702;2023-09-18T02:17:50;18.20;69.60
57660;DHT22;43485;45.680;15.702;2023-09-18T02:20:18;18.10;69.50
57660;DHT22;43485;45.680;15.702;2023-09-18T02:22:44;18.10;69.90
57660;DHT22;43485;45.680;15.702;2023-09-18T02:25:12;18.20;69.90
57660;DHT22;43485;45.680;15.702;2023-09-18T02:27:38;18.10;69.80
57660;DHT22;43485;45.680;15.702;2023-09-18T02:30:05;18.20;69.80
57660;DHT22;43485;45.680;15.702;2023-09-18T02:32:32;18.10;70.00
57660;DHT22;43485;45.680;15.702;2023-09-18T02:34:58;18.10;70.40
57660;DHT22;43485;45.680;15.702;2023-09-18T02:37:24;18.10;70.70
57660;DHT22;43485;45.680;15.702;2023-09-18T02:39:50;18.10;70.70
57660;DHT22;43485;45.680;15.702;2023-09-18T02:42:16;18.10;70.50
57660;DHT22;43485;45.680;15.702;2023-09-18T02:44:42;18.10;70.60
57660;DHT22;43485;45.680;15.702;2023-09-18T02:47:08;18.00;70.30
57660;DHT22;43485;45.680;15.702;2023-09-18T02:49:34;18.00;70.40
57660;DHT22;43485;45.680;15.702;2023-09-18T02:52:00;18.00;70.60
57660;DHT22;43485;45.680;15.702;2023-09-18T02:54:26;17.90;70.70
57660;DHT22;43485;45.680;15.702;2023-09-18T02:56:52;18.00;70.50
57660;DHT22;43485;45.680;15.702;2023-09-18T02:59:18;18.00;70.60
57660;DHT22;43485;45.680;15.702;2023-09-18T03:01:44;18.00;70.50
57660;DHT22;43485;45.680;15.702;2023-09-18T03:04:10;18.00;70.10
57660;DHT22;43485;45.680;15.702;2023-09-18T03:06:38;18.10;70.20
57660;DHT22;43485;45.680;15.702;2023-09-18T03:09:05;18.10;70.20
57660;DHT22;43485;45.680;15.702;2023-09-18T03:11:31;18.10;70.40
57660;DHT22;43485;45.680;15.702;2023-09-18T03:13:57;18.10;70.50
57660;DHT22;43485;45.680;15.702;2023-09-18T03:16:23;18.10;70.40
57660;DHT22;43485;45.680;15.702;2023-09-18T03:18:49;18.10;70.60
57660;DHT22;43485;45.680;15.702;2023-09-18T03:21:15;18.10;70.50
57660;DHT22;43485;45.680;15.702;2023-09-18T03:23:41;18.10;70.80
57660;DHT22;43485;45.680;15.702;2023-09-18T03:26:07;18.10;70.90
57660;DHT22;43485;45.680;15.702;2023-09-18T03:28:33;18.10;71.10
57660;DHT22;43485;45.680;15.702;2023-09-18T03:30:59;18.10;71.00
57660;DHT22;43485;45.680;15.702;2023-09-18T03:33:25;18.10;70.90
57660;DHT22;43485;45.680;15.702;2023-09-18T03:35:53;18.10;70.60
57660;DHT22;43485;45.680;15.702;2023-09-18T03:38:24;18.10;70.30
57660;DHT22;43485;45.680;15.702;2023-09-18T03:40:50;18.00;70.40
57660;DHT22;43485;45.680;15.702;2023-09-18T03:43:17;18.00;70.30
57660;DHT22;43485;45.680;15.702;2023-09-18T03:45:43;18.00;70.30
57660;DHT22;43485;45.680;15.702;2023-09-18T03:48:09;17.90;69.80
57660;DHT22;43485;45.680;15.702;2023-09-18T03:50:36;17.80;69.50
57660;DHT22;43485;45.680;15.702;2023-09-18T03:53:02;17.80;69.60
57660;DHT22;43485;45.680;15.702;2023-09-18T03:55:28;17.70;69.30
57660;DHT22;43485;45.680;15.702;2023-09-18T03:57:55;17.70;70.10
57660;DHT22;43485;45.680;15.702;2023-09-18T04:00:22;17.70;70.30
57660;DHT22;43485;45.680;15.702;2023-09-18T04:02:48;17.70;70.60
57660;DHT22;43485;45.680;15.702;2023-09-18T04:05:14;17.70;70.50
57660;DHT22;43485;45.680;15.702;2023-09-18T04:07:40;17.80;70.50
57660;DHT22;43485;45.680;15.702;2023-09-18T04:10:11;17.70;70.80
57660;DHT22;43485;45.680;15.702;2023-09-18T04:12:44;17.80;71.00
57660;DHT22;43485;45.680;15.702;2023-09-18T04:15:14;17.80;70.70
57660;DHT22;43485;45.680;15.702;2023-09-18T04:17:40;17.90;71.50
57660;DHT22;43485;45.680;15.702;2023-09-18T04:20:06;17.90;71.60
57660;DHT22;43485;45.680;15.702;2023-09-18T04:22:34;17.80;71.30
57660;DHT22;43485;45.680;15.702;2023-09-18T04:25:00;17.80;71.80
57660;DHT22;43485;45.680;15.702;2023-09-18T04:27:26;17.80;72.20
57660;DHT22;43485;45.680;15.702;2023-09-18T04:29:52;17.80;72.10
57660;DHT22;43485;45.680;15.702;2023-09-18T04:32:18;17.80;72.20
57660;DHT22;43485;45.680;15.702;2023-09-18T04:34:44;17.80;72.20
57660;DHT22;43485;45.680;15.702;2023-09-18T04:37:11;17.80;72.30
57660;DHT22;43485;45.680;15.702;2023-09-18T04:39:37;17.80;72.30
57660;DHT22;43485;45.680;15.702;2023-09-18T04:42:03;17.80;72.40
57660;DHT22;43485;45.680;15.702;2023-09-18T04:44:29;17.80;71.50
57660;DHT22;43485;45.680;15.702;2023-09-18T04:46:56;17.80;72.10
57660;DHT22;43485;45.680;15.702;2023-09-18T04:49:23;17.80;72.10
57660;DHT22;43485;45.680;15.702;2023-09-18T04:51:49;17.80;72.10
57660;DHT22;43485;45.680;15.702;2023-09-18T04:54:15;17.80;72.00
57660;DHT22;43485;45.680;15.702;2023-09-18T04:56:41;17.80;71.90
57660;DHT22;43485;45.680;15.702;2023-09-18T04:59:07;17.80;71.70
57660;DHT22;43485;45.680;15.702;2023-09-18T05:01:33;17.80;72.50
57660;DHT22;43485;45.680;15.702;2023-09-18T05:03:59;17.80;71.50
57660;DHT22;43485;45.680;15.702;2023-09-18T05:06:25;17.70;71.40
57660;DHT22;43485;45.680;15.702;2023-09-18T05:08:51;17.80;71.70
57660;DHT22;43485;45.680;15.702;2023-09-18T05:11:18;17.80;71.40
57660;DHT22;43485;45.680;15.702;2023-09-18T05:13:45;17.80;71.50
57660;DHT22;43485;45.680;15.702;2023-09-18T05:16:11;17.80;71.70
57660;DHT22;43485;45.680;15.702;2023-09-18T05:18:38;17.80;71.70
57660;DHT22;43485;45.680;15.702;2023-09-18T05:21:07;17.80;71.60
57660;DHT22;43485;45.680;15.702;2023-09-18T05:23:35;17.90;71.40
57660;DHT22;43485;45.680;15.702;2023-09-18T05:26:02;18.00;71.50
57660;DHT22;43485;45.680;15.702;2023-09-18T05:28:28;18.00;71.40
57660;DHT22;43485;45.680;15.702;2023-09-18T05:30:54;18.10;71.70
57660;DHT22;43485;45.680;15.702;2023-09-18T05:33:20;18.00;71.70
57660;DHT22;43485;45.680;15.702;2023-09-18T05:35:46;18.00;71.60
57660;DHT22;43485;45.680;15.702;2023-09-18T05:38:13;18.10;71.60
57660;DHT22;43485;45.680;15.702;2023-09-18T05:40:40;18.20;70.90
57660;DHT22;43485;45.680;15.702;2023-09-18T05:43:06;18.20;71.40
57660;DHT22;43485;45.680;15.702;2023-09-18T05:45:33;18.30;71.50
57660;DHT22;43485;45.680;15.702;2023-09-18T05:47:59;18.30;71.50
57660;DHT22;43485;45.680;15.702;2023-09-18T05:50:34;18.40;71.60
57660;DHT22;43485;45.680;15.702;2023-09-18T05:53:04;18.40;71.40
57660;DHT22;43485;45.680;15.702;2023-09-18T05:55:31;18.50;71.80
57660;DHT22;43485;45.680;15.702;2023-09-18T05:57:57;18.50;71.80
57660;DHT22;43485;45.680;15.702;2023-09-18T06:00:24;18.50;71.70
57660;DHT22;43485;45.680;15.702;2023-09-18T06:02:51;18.60;71.70
57660;DHT22;43485;45.680;15.702;2023-09-18T06:05:17;18.70;71.30
57660;DHT22;43485;45.680;15.702;2023-09-18T06:10:31;18.80;72.10
57660;DHT22;43485;45.680;15.702;2023-09-18T06:12:57;18.80;72.20
57660;DHT22;43485;45.680;15.702;2023-09-18T06:15:24;18.90;72.40
57660;DHT22;43485;45.680;15.702;2023-09-18T06:17:50;19.00;72.20
57660;DHT22;43485;45.680;15.702;2023-09-18T06:20:16;19.00;71.90
57660;DHT22;43485;45.680;15.702;2023-09-18T06:22:42;19.10;71.70
57660;DHT22;43485;45.680;15.702;2023-09-18T06:25:09;19.30;71.60
57660;DHT22;43485;45.680;15.702;2023-09-18T06:27:40;19.40;71.40
57660;DHT22;43485;45.680;15.702;2023-09-18T06:30:08;19.60;71.50
57660;DHT22;43485;45.680;15.702;2023-09-18T06:32:34;19.70;70.60
57660;DHT22;43485;45.680;15.702;2023-09-18T06:35:02;19.80;71.10
57660;DHT22;43485;45.680;15.702;2023-09-18T06:37:28;19.90;70.60
57660;DHT22;43485;45.680;15.702;2023-09-18T06:39:55;19.90;71.20
57660;DHT22;43485;45.680;15.702;2023-09-18T06:42:22;20.00;71.20
57660;DHT22;43485;45.680;15.702;2023-09-18T06:44:48;20.10;71.10
57660;DHT22;43485;45.680;15.702;2023-09-18T06:47:14;20.20;70.80
57660;DHT22;43485;45.680;15.702;2023-09-18T06:49:41;20.30;70.50
57660;DHT22;43485;45.680;15.702;2023-09-18T06:52:09;20.30;70.00
57660;DHT22;43485;45.680;15.702;2023-09-18T06:54:35;20.40;69.90
57660;DHT22;43485;45.680;15.702;2023-09-18T06:57:02;20.40;70.00
57660;DHT22;43485;45.680;15.702;2023-09-18T06:59:28;20.50;69.60
57660;DHT22;43485;45.680;15.702;2023-09-18T07:01:55;20.70;69.90
57660;DHT22;43485;45.680;15.702;2023-09-18T07:04:21;20.70;69.70
57660;DHT22;43485;45.680;15.702;2023-09-18T07:06:47;20.80;69.40
57660;DHT22;43485;45.680;15.702;2023-09-18T07:09:14;20.90;69.40
57660;DHT22;43485;45.680;15.702;2023-09-18T07:11:40;20.90;69.60
57660;DHT22;43485;45.680;15.702;2023-09-18T07:14:06;20.90;69.50
57660;DHT22;43485;45.680;15.702;2023-09-18T07:16:33;21.00;69.50
57660;DHT22;43485;45.680;15.702;2023-09-18T07:18:59;21.10;69.60
57660;DHT22;43485;45.680;15.702;2023-09-18T07:21:26;21.20;69.40
57660;DHT22;43485;45.680;15.702;2023-09-18T07:23:54;21.30;68.50
57660;DHT22;43485;45.680;15.702;2023-09-18T07:26:20;21.50;69.10
57660;DHT22;43485;45.680;15.702;2023-09-18T07:28:46;21.60;69.10
57660;DHT22;43485;45.680;15.702;2023-09-18T07:31:13;21.80;68.40
57660;DHT22;43485;45.680;15.702;2023-09-18T07:33:40;22.40;66.90
57660;DHT22;43485;45.680;15.702;2023-09-18T07:36:07;22.90;66.00
57660;DHT22;43485;45.680;15.702;2023-09-18T07:38:35;23.50;64.80
57660;DHT22;43485;45.680;15.702;2023-09-18T07:41:03;24.10;62.70
57660;DHT22;43485;45.680;15.702;2023-09-18T07:43:29;24.60;60.00
57660;DHT22;43485;45.680;15.702;2023-09-18T07:45:55;25.10;60.10
57660;DHT22;43485;45.680;15.702;2023-09-18T07:48:22;25.60;59.00
57660;DHT22;43485;45.680;15.702;2023-09-18T07:50:48;26.20;56.20
57660;DHT22;43485;45.680;15.702;2023-09-18T07:53:15;26.70;54.00
57660;DHT22;43485;45.680;15.702;2023-09-18T07:55:42;27.00;53.30
57660;DHT22;43485;45.680;15.702;2023-09-18T07:58:08;27.30;52.70
57660;DHT22;43485;45.680;15.702;2023-09-18T08:00:35;27.10;51.90
57660;DHT22;43485;45.680;15.702;2023-09-18T08:03:01;27.00;52.80
57660;DHT22;43485;45.680;15.702;2023-09-18T08:05:27;27.00;52.60
57660;DHT22;43485;45.680;15.702;2023-09-18T08:07:54;26.90;51.80
57660;DHT22;43485;45.680;15.702;2023-09-18T08:10:25;27.00;52.50
57660;DHT22;43485;45.680;15.702;2023-09-18T08:12:52;27.50;50.40
57660;DHT22;43485;45.680;15.702;2023-09-18T08:15:38;28.40;50.00
57660;DHT22;43485;45.680;15.702;2023-09-18T08:18:04;29.10;46.90
57660;DHT22;43485;45.680;15.702;2023-09-18T08:20:30;29.70;45.40
57660;DHT22;43485;45.680;15.702;2023-09-18T08:22:58;30.40;43.70
57660;DHT22;43485;45.680;15.702;2023-09-18T08:25:28;30.90;41.30
57660;DHT22;43485;45.680;15.702;2023-09-18T08:27:54;31.40;39.70
57660;DHT22;43485;45.680;15.702;2023-09-18T08:30:21;31.80;39.30
57660;DHT22;43485;45.680;15.702;2023-09-18T08:32:47;32.10;38.50
57660;DHT22;43485;45.680;15.702;2023-09-18T08:35:13;32.90;37.60
57660;DHT22;43485;45.680;15.702;2023-09-18T08:37:58;33.50;35.50
57660;DHT22;43485;45.680;15.702;2023-09-18T08:40:24;34.10;34.40
57660;DHT22;43485;45.680;15.702;2023-09-18T08:42:52;34.60;33.00
57660;DHT22;43485;45.680;15.702;2023-09-18T08:48:45;35.60;31.10
57660;DHT22;43485;45.680;15.702;2023-09-18T08:51:11;36.20;30.00
57660;DHT22;43485;45.680;15.702;2023-09-18T08:53:37;36.70;29.50
57660;DHT22;43485;45.680;15.702;2023-09-18T08:56:04;37.20;29.00
57660;DHT22;43485;45.680;15.702;2023-09-18T08:58:33;37.70;27.90
57660;DHT22;43485;45.680;15.702;2023-09-18T09:01:02;38.20;27.10
57660;DHT22;43485;45.680;15.702;2023-09-18T09:03:30;38.50;26.40
57660;DHT22;43485;45.680;15.702;2023-09-18T09:05:57;38.90;25.80
57660;DHT22;43485;45.680;15.702;2023-09-18T09:08:27;39.20;25.70
57660;DHT22;43485;45.680;15.702;2023-09-18T09:10:54;39.60;25.00
57660;DHT22;43485;45.680;15.702;2023-09-18T09:13:23;40.00;24.70
57660;DHT22;43485;45.680;15.702;2023-09-18T09:15:54;40.10;24.20
57660;DHT22;43485;45.680;15.702;2023-09-18T09:18:48;39.30;24.60
57660;DHT22;43485;45.680;15.702;2023-09-18T09:21:15;38.00;25.70
57660;DHT22;43485;45.680;15.702;2023-09-18T09:24:01;38.40;25.80
57660;DHT22;43485;45.680;15.702;2023-09-18T09:26:28;39.50;24.80
57660;DHT22;43485;45.680;15.702;2023-09-18T09:28:55;40.30;23.70
57660;DHT22;43485;45.680;15.702;2023-09-18T09:31:29;40.80;23.40
57660;DHT22;43485;45.680;15.702;2023-09-18T09:33:56;41.30;22.70
57660;DHT22;43485;45.680;15.702;2023-09-18T09:36:24;40.90;21.70
57660;DHT22;43485;45.680;15.702;2023-09-18T09:38:55;40.80;22.00
57660;DHT22;43485;45.680;15.702;2023-09-18T09:41:23;41.10;22.50
57660;DHT22;43485;45.680;15.702;2023-09-18T09:43:50;41.30;22.70
57660;DHT22;43485;45.680;15.702;2023-09-18T09:46:17;41.50;22.00
57660;DHT22;43485;45.680;15.702;2023-09-18T09:49:03;41.70;21.60
57660;DHT22;43485;45.680;15.702;2023-09-18T09:51:31;41.30;22.20
57660;DHT22;43485;45.680;15.702;2023-09-18T09:53:58;41.90;21.40
57660;DHT22;43485;45.680;15.702;2023-09-18T09:56:45;42.50;20.60
57660;DHT22;43485;45.680;15.702;2023-09-18T09:59:31;41.40;21.70
57660;DHT22;43485;45.680;15.702;2023-09-18T10:02:01;40.40;22.90
57660;DHT22;43485;45.680;15.702;2023-09-18T10:04:29;40.00;23.70
57660;DHT22;43485;45.680;15.702;2023-09-18T10:09:47;38.80;24.30
57660;DHT22;43485;45.680;15.702;2023-09-18T10:12:17;38.20;24.90
57660;DHT22;43485;45.680;15.702;2023-09-18T10:14:47;37.80;25.70
57660;DHT22;43485;45.680;15.702;2023-09-18T10:17:18;37.50;26.00
57660;DHT22;43485;45.680;15.702;2023-09-18T10:20:07;37.20;26.20
57660;DHT22;43485;45.680;15.702;2023-09-18T10:22:54;37.40;26.60
57660;DHT22;43485;45.680;15.702;2023-09-18T10:25:41;38.30;25.30
57660;DHT22;43485;45.680;15.702;2023-09-18T10:28:07;38.50;25.60
57660;DHT22;43485;45.680;15.702;2023-09-18T10:30:34;37.90;25.40
57660;DHT22;43485;45.680;15.702;2023-09-18T10:33:02;37.20;27.10
57660;DHT22;43485;45.680;15.702;2023-09-18T10:35:29;36.70;27.40
57660;DHT22;43485;45.680;15.702;2023-09-18T10:37:56;36.40;27.90
57660;DHT22;43485;45.680;15.702;2023-09-18T10:40:23;36.30;27.80
57660;DHT22;43485;45.680;15.702;2023-09-18T10:42:54;35.90;28.30
57660;DHT22;43485;45.680;15.702;2023-09-18T10:45:23;35.60;28.50
57660;DHT22;43485;45.680;15.702;2023-09-18T10:47:49;35.50;28.90
57660;DHT22;43485;45.680;15.702;2023-09-18T10:50:35;35.20;29.80
57660;DHT22;43485;45.680;15.702;2023-09-18T10:53:02;35.00;29.40
57660;DHT22;43485;45.680;15.702;2023-09-18T10:55:28;35.10;29.30
57660;DHT22;43485;45.680;15.702;2023-09-18T10:57:56;35.00;29.70
57660;DHT22;43485;45.680;15.702;2023-09-18T11:00:42;34.80;30.20
57660;DHT22;43485;45.680;15.702;2023-09-18T11:06:13;34.30;31.70
57660;DHT22;43485;45.680;15.702;2023-09-18T11:09:00;34.30;31.60
57660;DHT22;43485;45.680;15.702;2023-09-18T11:11:30;34.00;32.60
57660;DHT22;43485;45.680;15.702;2023-09-18T11:13:59;33.90;32.70
57660;DHT22;43485;45.680;15.702;2023-09-18T11:16:44;33.90;33.40
57660;DHT22;43485;45.680;15.702;2023-09-18T11:19:34;33.90;32.60
57660;DHT22;43485;45.680;15.702;2023-09-18T11:22:07;34.00;32.90
57660;DHT22;43485;45.680;15.702;2023-09-18T11:24:35;34.20;33.30
57660;DHT22;43485;45.680;15.702;2023-09-18T11:27:01;34.50;32.20
57660;DHT22;43485;45.680;15.702;2023-09-18T11:29:29;34.30;31.50
57660;DHT22;43485;45.680;15.702;2023-09-18T11:31:57;34.80;31.30
57660;DHT22;43485;45.680;15.702;2023-09-18T11:34:25;35.80;29.50
57660;DHT22;43485;45.680;15.702;2023-09-18T11:37:30;35.50;29.60
57660;DHT22;43485;45.680;15.702;2023-09-18T11:39:57;34.50;31.60
57660;DHT22;43485;45.680;15.702;2023-09-18T11:42:25;33.90;32.30
57660;DHT22;43485;45.680;15.702;2023-09-18T11:44:52;33.30;33.30
57660;DHT22;43485;45.680;15.702;2023-09-18T11:47:24;32.90;33.70
57660;DHT22;43485;45.680;15.702;2023-09-18T11:49:53;32.70;35.30
57660;DHT22;43485;45.680;15.702;2023-09-18T11:52:40;32.40;35.80
57660;DHT22;43485;45.680;15.702;2023-09-18T11:55:07;32.20;36.80
57660;DHT22;43485;45.680;15.702;2023-09-18T11:57:37;32.00;36.60
57660;DHT22;43485;45.680;15.702;2023-09-18T12:00:04;31.80;37.10
57660;DHT22;43485;45.680;15.702;2023-09-18T12:02:38;31.60;37.60
57660;DHT22;43485;45.680;15.702;2023-09-18T12:05:26;31.40;38.10
57660;DHT22;43485;45.680;15.702;2023-09-18T12:07:52;31.20;38.70
57660;DHT22;43485;45.680;15.702;2023-09-18T12:10:20;31.00;39.30
57660;DHT22;43485;45.680;15.702;2023-09-18T12:12:47;30.80;39.20
57660;DHT22;43485;45.680;15.702;2023-09-18T12:15:14;30.70;39.70
57660;DHT22;43485;45.680;15.702;2023-09-18T12:17:42;30.60;39.70
57660;DHT22;43485;45.680;15.702;2023-09-18T12:20:15;30.50;40.30
57660;DHT22;43485;45.680;15.702;2023-09-18T12:22:48;30.50;40.40
57660;DHT22;43485;45.680;15.702;2023-09-18T12:25:16;30.50;40.00
57660;DHT22;43485;45.680;15.702;2023-09-18T12:27:44;30.50;39.40
57660;DHT22;43485;45.680;15.702;2023-09-18T12:30:12;30.50;39.40
57660;DHT22;43485;45.680;15.702;2023-09-18T12:32:40;30.50;39.70
57660;DHT22;43485;45.680;15.702;2023-09-18T12:35:07;30.50;40.40
57660;DHT22;43485;45.680;15.702;2023-09-18T12:37:53;30.50;40.30
57660;DHT22;43485;45.680;15.702;2023-09-18T12:40:37;30.50;40.30
57660;DHT22;43485;45.680;15.702;2023-09-18T12:43:03;30.70;40.40
57660;DHT22;43485;45.680;15.702;2023-09-18T12:45:31;31.30;39.40
57660;DHT22;43485;45.680;15.702;2023-09-18T12:47:58;32.20;37.70
57660;DHT22;43485;45.680;15.702;2023-09-18T12:50:25;32.80;35.90
57660;DHT22;43485;45.680;15.702;2023-09-18T12:52:51;32.90;35.10
57660;DHT22;43485;45.680;15.702;2023-09-18T12:55:36;32.50;36.00
57660;DHT22;43485;45.680;15.702;2023-09-18T12:58:03;32.20;36.80
57660;DHT22;43485;45.680;15.702;2023-09-18T13:00:33;32.10;37.40
57660;DHT22;43485;45.680;15.702;2023-09-18T13:03:01;31.90;37.10
57660;DHT22;43485;45.680;15.702;2023-09-18T13:05:30;31.80;36.90
57660;DHT22;43485;45.680;15.702;2023-09-18T13:11:04;31.60;38.20
57660;DHT22;43485;45.680;15.702;2023-09-18T13:13:32;32.80;36.70
57660;DHT22;43485;45.680;15.702;2023-09-18T13:15:59;35.10;32.50
57660;DHT22;43485;45.680;15.702;2023-09-18T13:18:26;36.70;29.60
57660;DHT22;43485;45.680;15.702;2023-09-18T13:20:53;37.90;27.90
57660;DHT22;43485;45.680;15.702;2023-09-18T13:23:20;38.70;27.10
57660;DHT22;43485;45.680;15.702;2023-09-18T13:25:46;38.30;26.80
57660;DHT22;43485;45.680;15.702;2023-09-18T13:28:13;37.40;28.20
57660;DHT22;43485;45.680;15.702;2023-09-18T13:30:41;36.40;29.40
57660;DHT22;43485;45.680;15.702;2023-09-18T13:33:09;35.40;30.00
57660;DHT22;43485;45.680;15.702;2023-09-18T13:35:37;34.40;31.10
57660;DHT22;43485;45.680;15.702;2023-09-18T13:38:05;33.60;32.70
57660;DHT22;43485;45.680;15.702;2023-09-18T13:40:34;33.20;33.60
57660;DHT22;43485;45.680;15.702;2023-09-18T13:43:19;32.80;33.70
57660;DHT22;43485;45.680;15.702;2023-09-18T13:45:47;32.50;35.20
57660;DHT22;43485;45.680;15.702;2023-09-18T13:48:18;32.10;36.00
57660;DHT22;43485;45.680;15.702;2023-09-18T13:50:44;32.00;36.60
57660;DHT22;43485;45.680;15.702;2023-09-18T13:53:12;31.80;37.50
57660;DHT22;43485;45.680;15.702;2023-09-18T13:55:38;31.70;37.70
57660;DHT22;43485;45.680;15.702;2023-09-18T13:58:04;31.50;39.00
57660;DHT22;43485;45.680;15.702;2023-09-18T14:00:30;31.40;39.30
57660;DHT22;43485;45.680;15.702;2023-09-18T14:02:56;31.20;39.70
57660;DHT22;43485;45.680;15.702;2023-09-18T14:05:23;31.20;41.00
57660;DHT22;43485;45.680;15.702;2023-09-18T14:07:49;31.00;41.40
57660;DHT22;43485;45.680;15.702;2023-09-18T14:10:15;30.90;41.60
57660;DHT22;43485;45.680;15.702;2023-09-18T14:12:44;30.80;42.40
57660;DHT22;43485;45.680;15.702;2023-09-18T14:15:10;30.60;43.40
57660;DHT22;43485;45.680;15.702;2023-09-18T14:17:37;30.50;44.00
57660;DHT22;43485;45.680;15.702;2023-09-18T14:20:05;30.30;44.20
57660;DHT22;43485;45.680;15.702;2023-09-18T14:22:35;30.20;44.70
57660;DHT22;43485;45.680;15.702;2023-09-18T14:25:02;30.20;45.10
57660;DHT22;43485;45.680;15.702;2023-09-18T14:27:31;30.10;45.60
57660;DHT22;43485;45.680;15.702;2023-09-18T14:29:58;30.00;45.80
57660;DHT22;43485;45.680;15.702;2023-09-18T14:32:24;30.00;46.80
57660;DHT22;43485;45.680;15.702;2023-09-18T14:34:51;30.10;46.70
57660;DHT22;43485;45.680;15.702;2023-09-18T14:37:17;30.10;46.20
57660;DHT22;43485;45.680;15.702;2023-09-18T14:39:43;30.20;45.70
57660;DHT22;43485;45.680;15.702;2023-09-18T14:42:11;30.30;45.60
57660;DHT22;43485;45.680;15.702;2023-09-18T14:44:38;30.30;44.80
57660;DHT22;43485;45.680;15.702;2023-09-18T14:49:54;30.10;44.20
57660;DHT22;43485;45.680;15.702;2023-09-18T14:52:21;29.90;44.60
57660;DHT22;43485;45.680;15.702;2023-09-18T14:54:49;29.90;44.90
57660;DHT22;43485;45.680;15.702;2023-09-18T14:57:15;29.80;45.10
57660;DHT22;43485;45.680;15.702;2023-09-18T14:59:41;29.60;44.80
57660;DHT22;43485;45.680;15.702;2023-09-18T15:02:13;29.50;45.00
57660;DHT22;43485;45.680;15.702;2023-09-18T15:04:44;29.40;45.00
57660;DHT22;43485;45.680;15.702;2023-09-18T15:07:10;29.30;46.00
57660;DHT22;43485;45.680;15.702;2023-09-18T15:09:37;29.30;46.20
57660;DHT22;43485;45.680;15.702;2023-09-18T15:12:04;29.10;46.50
57660;DHT22;43485;45.680;15.702;2023-09-18T15:14:34;29.10;46.70
57660;DHT22;43485;45.680;15.702;2023-09-18T15:17:01;28.90;46.80
57660;DHT22;43485;45.680;15.702;2023-09-18T15:19:27;28.80;47.40
57660;DHT22;43485;45.680;15.702;2023-09-18T15:21:53;28.60;48.10
57660;DHT22;43485;45.680;15.702;2023-09-18T15:24:21;28.50;48.60
57660;DHT22;43485;45.680;15.702;2023-09-18T15:26:48;28.40;48.90
57660;DHT22;43485;45.680;15.702;2023-09-18T15:29:14;28.40;49.70
57660;DHT22;43485;45.680;15.702;2023-09-18T15:31:41;28.30;50.00
57660;DHT22;43485;45.680;15.702;2023-09-18T15:34:09;28.20;50.40
57660;DHT22;43485;45.680;15.702;2023-09-18T15:36:35;28.10;50.90
57660;DHT22;43485;45.680;15.702;2023-09-18T15:39:01;28.00;51.30
57660;DHT22;43485;45.680;15.702;2023-09-18T15:41:29;27.90;51.20